Hewittsville, Illinois
Current Conditions -  °F | °C
As of 11:15 AM on Saturday 20 Dec 2014 (Local Time) from KTAZ Reporting Station
Overcast Overcast  
Wind Chill: 25°   Ceiling: 2700
Heat Index: 32°   Visibility: 7mi
Dew Point: 30°   Wind: 8mph
Humidity: 93%   Direction: 130°SE
Pressure: 30.28"   Gusts: NA
Location:  39.5521°N, 89.3216°W
Report Text: KTAZ 201715Z AUTO 13007KT 7SM OVC027 00/M01 A3028 RMK AO2
Loading
Personal Weather Stations






























Interactive Weather Map New forecast layout! Learn more

10-Day Weather Forecast

Advertisements
Track Severe Weather on mobile